Morse, Louisiana
Current Conditions -  °F | °C
As of 4:55 PM on Thursday 20 Nov 2014 (Local Time) from K3R7 Reporting Station
Clear Clear  
Wind Chill: 64°   Ceiling: Unl
Heat Index: 64°   Visibility: 10mi
Dew Point: 51°   Wind: 7mph
Humidity: 62%   Direction: 140°SE
Pressure: 30.15"   Gusts: NA
Location:  30.12°N, 92.5°W
Report Text: K3R7 202255Z AUTO 14006KT 10SM CLR 18/11 A3015 RMK AO2 T01800105
Loading
Personal Weather Stations






























Interactive Weather Map New forecast layout! Learn more

10-Day Weather Forecast

Advertisements
Track Severe Weather on mobile